createdAt,value
2023-05-05T00:01:34.295Z,60.89
2023-05-05T00:04:06.788Z,60.84
2023-05-05T00:06:39.578Z,61.19
2023-05-05T00:09:11.852Z,61.44
2023-05-05T00:11:46.671Z,61.32
2023-05-05T00:14:18.919Z,61.26
2023-05-05T00:16:51.397Z,61.70
2023-05-05T00:19:23.670Z,62.14
2023-05-05T00:21:55.896Z,62.31
2023-05-05T00:24:28.295Z,62.19
2023-05-05T00:27:04.134Z,61.67
2023-05-05T00:29:36.484Z,60.68
2023-05-05T00:32:09.029Z,61.68
2023-05-05T00:34:41.281Z,62.24
2023-05-05T00:37:13.480Z,61.59
2023-05-05T00:39:47.848Z,62.06
2023-05-05T00:42:22.680Z,63.04
2023-05-05T00:44:54.904Z,63.61
2023-05-05T00:47:27.140Z,62.97
2023-05-05T00:50:00.427Z,62.24
2023-05-05T00:52:32.969Z,62.02
2023-05-05T00:55:05.355Z,62.10
2023-05-05T00:57:40.308Z,61.31
2023-05-05T01:00:13.866Z,62.29
2023-05-05T01:02:46.349Z,61.92
2023-05-05T01:05:21.286Z,61.14
2023-05-05T01:08:06.267Z,61.00
2023-05-05T01:10:44.772Z,61.03
2023-05-05T01:13:33.235Z,60.94
2023-05-05T01:16:15.882Z,60.97
2023-05-05T01:18:58.072Z,61.58
2023-05-05T01:21:37.657Z,62.16
2023-05-05T01:24:43.034Z,63.02
2023-05-05T01:27:48.062Z,63.74
2023-05-05T01:30:42.171Z,64.75
2023-05-05T01:33:24.079Z,64.92
2023-05-05T01:36:02.734Z,65.09
2023-05-05T01:38:41.998Z,65.18
2023-05-05T01:41:19.247Z,66.17
2023-05-05T01:43:55.732Z,65.98
2023-05-05T01:46:29.350Z,66.46
2023-05-05T01:49:04.453Z,66.42
2023-05-05T01:51:38.364Z,66.71
2023-05-05T01:54:13.745Z,66.97
2023-05-05T01:56:48.395Z,67.45
2023-05-05T01:59:24.098Z,67.65
2023-05-05T02:01:57.194Z,67.93
2023-05-05T02:04:35.956Z,68.11
2023-05-05T02:07:10.186Z,68.07
2023-05-05T02:09:44.699Z,67.86
2023-05-05T02:12:18.085Z,67.60
2023-05-05T02:14:52.741Z,67.89
2023-05-05T02:17:27.389Z,68.02
2023-05-05T02:20:04.906Z,68.32
2023-05-05T02:22:37.674Z,71.10
2023-05-05T02:25:11.756Z,73.42
2023-05-05T02:27:47.710Z,73.56
2023-05-05T02:30:23.752Z,73.87
2023-05-05T02:33:04.176Z,75.17
2023-05-05T02:35:43.038Z,76.08
2023-05-05T02:38:20.178Z,77.72
2023-05-05T02:40:56.130Z,77.44
2023-05-05T02:43:33.631Z,76.67
2023-05-05T02:46:06.151Z,76.14
2023-05-05T02:48:38.384Z,76.06
2023-05-05T02:51:13.198Z,77.28
2023-05-05T02:53:45.772Z,77.83
2023-05-05T02:56:30.586Z,77.70
2023-05-05T02:59:15.351Z,77.37
2023-05-05T03:02:03.756Z,78.34
2023-05-05T03:04:42.963Z,79.90
2023-05-05T03:07:25.828Z,80.83
2023-05-05T03:10:07.585Z,80.26
2023-05-05T03:12:49.120Z,81.00
2023-05-05T03:15:23.727Z,80.25
2023-05-05T03:18:00.490Z,80.38
2023-05-05T03:20:34.381Z,80.36
2023-05-05T03:23:10.062Z,81.11
2023-05-05T03:25:49.947Z,80.61
2023-05-05T03:28:23.701Z,80.78
2023-05-05T03:30:56.410Z,79.86
2023-05-05T03:33:28.703Z,80.22
2023-05-05T03:36:01.100Z,80.30
2023-05-05T03:38:35.855Z,80.70
2023-05-05T03:41:08.088Z,81.03
2023-05-05T03:43:40.231Z,81.35
2023-05-05T03:46:13.097Z,81.03
2023-05-05T03:48:45.438Z,81.56
2023-05-05T03:51:17.884Z,82.05
2023-05-05T03:53:52.688Z,81.49
2023-05-05T03:56:25.125Z,82.54
2023-05-05T03:58:57.312Z,82.61
2023-05-05T04:01:30.159Z,82.83
2023-05-05T04:04:02.330Z,82.62
2023-05-05T04:06:34.825Z,82.61
2023-05-05T04:09:09.664Z,83.63
2023-05-05T04:11:41.885Z,82.66
2023-05-05T04:14:14.123Z,83.68
2023-05-05T04:16:46.568Z,83.68
2023-05-05T04:19:18.772Z,83.68
2023-05-05T04:21:52.166Z,83.69
2023-05-05T04:24:27.536Z,84.11
2023-05-05T04:26:59.923Z,83.50
2023-05-05T04:29:32.110Z,84.56
2023-05-05T04:32:04.399Z,84.53
2023-05-05T04:34:36.590Z,84.30
2023-05-05T04:37:08.817Z,84.89
2023-05-05T04:39:43.979Z,84.52
2023-05-05T04:42:16.192Z,84.38
2023-05-05T04:44:48.424Z,84.72
2023-05-05T04:47:20.597Z,83.90
2023-05-05T04:49:52.773Z,84.45
2023-05-05T04:52:24.933Z,84.41
2023-05-05T04:54:59.868Z,84.70
2023-05-05T04:57:33.463Z,84.67
2023-05-05T05:00:06.710Z,84.47
2023-05-05T05:02:39.879Z,84.15
2023-05-05T05:05:13.482Z,84.17
2023-05-05T05:07:46.083Z,84.23
2023-05-05T05:10:21.194Z,84.13
2023-05-05T05:12:53.514Z,84.41
2023-05-05T05:15:26.148Z,84.07
2023-05-05T05:17:58.410Z,84.01
2023-05-05T05:20:30.662Z,83.71
2023-05-05T05:23:04.628Z,84.06
2023-05-05T05:25:39.635Z,84.13
2023-05-05T05:28:11.799Z,83.97
2023-05-05T05:30:44.010Z,83.91
2023-05-05T05:33:16.232Z,83.99
2023-05-05T05:35:48.497Z,83.62
2023-05-05T05:38:20.709Z,83.45
2023-05-05T05:40:55.485Z,83.59
2023-05-05T05:43:27.793Z,83.12
2023-05-05T05:46:00.100Z,82.84
2023-05-05T05:48:32.367Z,82.91
2023-05-05T05:51:04.982Z,82.38
2023-05-05T05:53:37.271Z,82.54
2023-05-05T05:56:13.383Z,82.28
2023-05-05T05:58:45.849Z,81.92
2023-05-05T06:01:18.846Z,81.91
2023-05-05T06:03:51.204Z,81.48
2023-05-05T06:06:23.584Z,81.32
2023-05-05T06:08:55.812Z,80.74
2023-05-05T06:11:30.627Z,80.11
2023-05-05T06:14:02.828Z,78.93
2023-05-05T06:16:35.168Z,78.68
2023-05-05T06:19:09.883Z,77.75
2023-05-05T06:21:42.724Z,77.24
2023-05-05T06:24:14.915Z,76.02
2023-05-05T06:26:49.884Z,76.59
2023-05-05T06:29:22.516Z,75.65
2023-05-05T06:31:54.736Z,74.77
2023-05-05T06:34:27.165Z,74.71
2023-05-05T06:36:59.350Z,73.94
2023-05-05T06:39:31.709Z,72.84
2023-05-05T06:42:06.548Z,72.29
2023-05-05T06:44:39.236Z,71.23
2023-05-05T06:47:11.513Z,71.99
2023-05-05T06:49:43.752Z,70.99
2023-05-05T06:52:17.824Z,70.59
2023-05-05T06:54:50.076Z,69.98
2023-05-05T06:57:24.931Z,69.98
2023-05-05T06:59:57.828Z,69.35
2023-05-05T07:02:30.050Z,69.23
2023-05-05T07:05:02.479Z,69.36
2023-05-05T07:07:34.677Z,68.45
2023-05-05T07:10:07.916Z,68.18
2023-05-05T07:12:42.824Z,68.84
2023-05-05T07:15:26.748Z,68.68
2023-05-05T07:18:01.472Z,67.94
2023-05-05T07:20:33.770Z,67.62
2023-05-05T07:23:06.067Z,67.43
2023-05-05T07:25:39.523Z,67.46
2023-05-05T07:28:15.413Z,66.98
2023-05-05T07:30:47.710Z,66.39
2023-05-05T07:33:20.092Z,65.80
2023-05-05T07:35:52.879Z,64.92
2023-05-05T07:38:25.831Z,64.94
2023-05-05T07:40:58.011Z,64.48
2023-05-05T07:43:32.827Z,65.06
2023-05-05T07:46:05.264Z,64.00
2023-05-05T07:48:37.602Z,62.82
2023-05-05T07:51:09.912Z,62.16
2023-05-05T07:53:42.359Z,61.95
2023-05-05T07:56:14.692Z,61.73
2023-05-05T07:58:49.544Z,61.73
2023-05-05T08:01:21.896Z,61.65
2023-05-05T08:03:54.155Z,61.18
2023-05-05T08:06:27.901Z,62.09
2023-05-05T08:09:00.530Z,61.93
2023-05-05T08:11:32.798Z,60.58
2023-05-05T08:14:07.560Z,60.89
2023-05-05T08:16:39.750Z,60.75
2023-05-05T08:19:21.551Z,60.06
2023-05-05T08:22:01.546Z,58.13
2023-05-05T08:24:33.991Z,57.90
2023-05-05T08:27:06.221Z,57.42
2023-05-05T08:29:41.084Z,58.25
2023-05-05T08:32:13.309Z,58.07
2023-05-05T08:34:46.860Z,56.18
2023-05-05T08:37:19.102Z,55.91
2023-05-05T08:39:51.293Z,54.61
2023-05-05T08:42:36.117Z,54.54
2023-05-05T08:45:14.296Z,54.29
2023-05-05T08:47:46.861Z,53.15
2023-05-05T08:50:23.142Z,53.68
2023-05-05T08:53:12.205Z,54.08
2023-05-05T08:55:54.225Z,54.50
2023-05-05T08:58:29.035Z,53.94
2023-05-05T09:01:04.394Z,54.41
2023-05-05T09:03:37.295Z,54.00
2023-05-05T09:06:10.597Z,53.98
2023-05-05T09:08:43.702Z,53.81
2023-05-05T09:11:15.857Z,53.21
2023-05-05T09:13:48.555Z,52.97
2023-05-05T09:16:23.515Z,54.29
2023-05-05T09:19:05.066Z,53.96
2023-05-05T09:21:37.238Z,53.10
2023-05-05T09:24:12.185Z,52.84
2023-05-05T09:26:47.473Z,53.02
2023-05-05T09:29:23.798Z,52.66
2023-05-05T09:32:09.445Z,53.54
2023-05-05T09:34:42.010Z,53.58
2023-05-05T09:37:14.997Z,52.47
2023-05-05T09:39:58.525Z,52.42
2023-05-05T09:42:31.060Z,52.53
2023-05-05T09:45:03.468Z,52.45
2023-05-05T09:47:42.772Z,53.34
2023-05-05T09:50:18.668Z,55.18
2023-05-05T09:52:59.321Z,56.16
2023-05-05T09:55:32.290Z,56.78
2023-05-05T09:58:23.944Z,57.29
2023-05-05T10:00:56.969Z,57.24
2023-05-05T10:03:31.752Z,56.65
2023-05-05T10:06:04.858Z,56.48
2023-05-05T10:08:40.018Z,56.48
2023-05-05T10:11:12.772Z,55.02
2023-05-05T10:13:46.592Z,55.15
2023-05-05T10:16:23.640Z,55.98
2023-05-05T10:18:59.015Z,60.01
2023-05-05T10:21:36.747Z,76.96
2023-05-05T10:24:19.525Z,90.94
2023-05-05T10:26:55.908Z,88.09
2023-05-05T10:29:40.784Z,90.50
2023-05-05T10:35:04.551Z,91.65
2023-05-05T10:37:37.915Z,92.29
2023-05-05T10:40:12.280Z,91.75
2023-05-05T10:42:44.682Z,94.76
2023-05-05T10:45:17.097Z,95.33
2023-05-05T10:47:49.827Z,94.09
2023-05-05T10:50:34.774Z,93.43
2023-05-05T10:53:17.132Z,92.99
2023-05-05T10:55:58.007Z,94.23
2023-05-05T10:58:47.478Z,94.90
2023-05-05T11:01:34.944Z,94.48
2023-05-05T11:04:26.087Z,94.70
2023-05-05T11:07:28.300Z,95.19
2023-05-05T11:10:02.412Z,95.22
2023-05-05T11:12:38.590Z,94.06
2023-05-05T11:15:42.925Z,95.53
2023-05-05T11:18:37.240Z,95.30
2023-05-05T11:21:20.791Z,95.54
2023-05-05T11:23:56.377Z,96.49
2023-05-05T11:26:53.302Z,95.74
2023-05-05T11:29:25.517Z,95.27
2023-05-05T11:32:15.957Z,95.91
2023-05-05T11:34:54.618Z,96.38
2023-05-05T11:37:27.637Z,95.14
2023-05-05T11:40:13.952Z,95.68
2023-05-05T11:42:46.504Z,95.93
2023-05-05T11:45:27.008Z,95.83
2023-05-05T11:48:28.654Z,95.02
2023-05-05T11:51:02.561Z,94.98
2023-05-05T11:53:35.264Z,94.51
2023-05-05T11:56:29.482Z,94.62
2023-05-05T11:59:13.515Z,94.76
2023-05-05T12:01:46.907Z,94.25
2023-05-05T12:04:19.812Z,94.51
2023-05-05T12:06:52.402Z,94.50
2023-05-05T12:09:26.161Z,94.16
2023-05-05T12:12:02.889Z,94.14
2023-05-05T12:14:36.129Z,93.46
2023-05-05T12:17:12.215Z,93.64
2023-05-05T12:19:50.607Z,94.13
2023-05-05T12:22:28.740Z,94.80
2023-05-05T12:25:03.108Z,93.54
2023-05-05T12:27:38.904Z,93.42
2023-05-05T12:30:20.310Z,93.82
2023-05-05T12:32:52.527Z,93.84
2023-05-05T12:35:25.247Z,93.76
2023-05-05T12:37:58.566Z,93.99
2023-05-05T12:40:54.868Z,93.56
2023-05-05T12:43:38.783Z,93.66
2023-05-05T12:46:14.595Z,92.74
2023-05-05T12:48:48.313Z,93.53
2023-05-05T12:51:23.547Z,93.48
2023-05-05T12:54:07.799Z,93.79
2023-05-05T12:56:44.290Z,93.24
2023-05-05T12:59:34.211Z,93.44
2023-05-05T13:02:06.448Z,93.80
2023-05-05T13:04:51.466Z,94.06
2023-05-05T13:07:25.682Z,92.87
2023-05-05T13:10:11.797Z,93.06
2023-05-05T13:12:44.029Z,93.06
2023-05-05T13:15:19.649Z,91.58
2023-05-05T13:17:51.916Z,92.82
2023-05-05T13:20:24.100Z,90.82
2023-05-05T13:22:56.399Z,90.65
2023-05-05T13:25:28.893Z,90.54
2023-05-05T13:28:01.073Z,90.51
2023-05-05T13:30:36.033Z,91.58
2023-05-05T13:33:08.414Z,90.61
2023-05-05T13:35:42.264Z,91.84
2023-05-05T13:38:16.065Z,91.14
2023-05-05T13:40:52.444Z,91.12
2023-05-05T13:43:24.724Z,91.36
2023-05-05T13:46:12.315Z,90.91
2023-05-05T13:48:56.044Z,90.70
2023-05-05T13:51:28.795Z,89.57
2023-05-05T13:54:00.943Z,89.19
2023-05-05T13:56:33.311Z,88.82
2023-05-05T13:59:05.610Z,88.79
2023-05-05T14:01:40.412Z,87.99
2023-05-05T14:04:12.939Z,87.87
2023-05-05T14:06:45.379Z,88.07
2023-05-05T14:09:17.537Z,88.51
2023-05-05T14:11:49.735Z,88.39
2023-05-05T14:14:22.915Z,89.30
2023-05-05T14:16:58.279Z,89.07
2023-05-05T14:19:31.113Z,89.53
2023-05-05T14:22:03.327Z,87.48
2023-05-05T14:24:35.483Z,88.04
2023-05-05T14:27:07.696Z,87.61
2023-05-05T14:29:39.955Z,86.40
2023-05-05T14:32:14.799Z,88.54
2023-05-05T14:34:50.227Z,88.75
2023-05-05T14:37:22.662Z,88.72
2023-05-05T14:39:54.881Z,88.43
2023-05-05T14:42:27.237Z,86.99
2023-05-05T14:44:59.539Z,87.31
2023-05-05T14:47:34.383Z,88.24
2023-05-05T14:50:09.825Z,86.70
2023-05-05T14:52:42.240Z,85.35
2023-05-05T14:55:14.834Z,80.44
2023-05-05T14:57:47.012Z,77.21
2023-05-05T15:00:20.204Z,71.90
2023-05-05T15:02:55.022Z,71.32
2023-05-05T15:05:27.359Z,70.15
2023-05-05T15:07:59.575Z,70.33
2023-05-05T15:10:31.758Z,70.19
2023-05-05T15:13:03.933Z,70.42
2023-05-05T15:15:36.180Z,70.22
2023-05-05T15:18:11.231Z,71.72
2023-05-05T15:20:43.548Z,74.45
2023-05-05T15:23:16.301Z,75.46
2023-05-05T15:25:48.562Z,74.89
2023-05-05T15:28:20.716Z,74.35
2023-05-05T15:30:52.964Z,75.82
2023-05-05T15:33:27.778Z,75.02
2023-05-05T15:36:00.551Z,76.18
2023-05-05T15:38:34.551Z,76.67
2023-05-05T15:41:07.158Z,76.48
2023-05-05T15:43:39.330Z,75.02
2023-05-05T15:46:11.671Z,73.95
2023-05-05T15:48:46.546Z,73.81
2023-05-05T15:51:18.708Z,72.48
2023-05-05T15:53:52.480Z,71.79
2023-05-05T15:56:27.389Z,70.24
2023-05-05T15:58:59.838Z,69.75
2023-05-05T16:01:33.548Z,70.14
2023-05-05T16:04:08.693Z,70.80
2023-05-05T16:06:41.084Z,71.30
2023-05-05T16:09:13.212Z,72.02
2023-05-05T16:11:45.535Z,71.65
2023-05-05T16:14:17.708Z,72.28
2023-05-05T16:16:50.000Z,70.19
2023-05-05T16:19:26.805Z,63.58
2023-05-05T16:21:59.538Z,60.27
2023-05-05T16:24:31.715Z,59.00
2023-05-05T16:27:03.918Z,57.87
2023-05-05T16:29:36.158Z,58.29
2023-05-05T16:32:08.700Z,56.33
2023-05-05T16:34:43.534Z,53.05
2023-05-05T16:37:15.731Z,47.81
2023-05-05T16:39:47.870Z,46.09
2023-05-05T16:42:20.438Z,45.08
2023-05-05T16:44:52.822Z,42.75
2023-05-05T16:47:25.443Z,43.83
2023-05-05T16:50:00.375Z,41.28
2023-05-05T16:52:32.527Z,40.82
2023-05-05T16:55:04.950Z,41.22
2023-05-05T16:57:37.129Z,42.34
2023-05-05T17:00:10.807Z,40.39
2023-05-05T17:02:42.995Z,39.12
2023-05-05T17:05:19.324Z,39.40
2023-05-05T17:07:52.371Z,38.85
2023-05-05T17:10:24.787Z,37.87
2023-05-05T17:12:56.947Z,38.36
2023-05-05T17:15:29.283Z,37.96
2023-05-05T17:18:01.437Z,38.72
2023-05-05T17:20:37.722Z,37.64
2023-05-05T17:23:09.921Z,37.88
2023-05-05T17:25:42.212Z,38.24
2023-05-05T17:28:14.980Z,36.81
2023-05-05T17:30:47.235Z,36.58
2023-05-05T17:33:22.141Z,38.32
2023-05-05T17:35:58.231Z,37.64
2023-05-05T17:38:30.482Z,38.20
2023-05-05T17:41:02.754Z,38.17
2023-05-05T17:43:34.974Z,37.29
2023-05-05T17:46:07.459Z,38.91
2023-05-05T17:48:39.716Z,41.72
2023-05-05T17:51:14.599Z,47.60
2023-05-05T17:53:46.957Z,51.94
2023-05-05T17:56:19.222Z,55.26
2023-05-05T17:58:54.466Z,57.63
2023-05-05T18:01:26.883Z,58.44
2023-05-05T18:03:59.081Z,60.84
2023-05-05T18:06:34.007Z,60.57
2023-05-05T18:09:06.338Z,62.33
2023-05-05T18:11:38.472Z,62.04
2023-05-05T18:14:11.085Z,62.85
2023-05-05T18:16:48.912Z,65.28
2023-05-05T18:19:22.094Z,65.37
2023-05-05T18:21:58.511Z,65.45
2023-05-05T18:24:31.976Z,66.71
2023-05-05T18:27:04.273Z,66.77
2023-05-05T18:29:37.478Z,65.75
2023-05-05T18:32:10.270Z,66.64
2023-05-05T18:34:42.673Z,66.93
2023-05-05T18:37:17.466Z,68.36
2023-05-05T18:39:49.858Z,69.58
2023-05-05T18:42:22.692Z,70.12
2023-05-05T18:44:55.003Z,71.16
2023-05-05T18:47:27.122Z,71.02
2023-05-05T18:49:59.345Z,71.92
2023-05-05T18:52:34.168Z,73.23
2023-05-05T18:55:07.034Z,74.00
2023-05-05T18:57:39.379Z,74.86
2023-05-05T19:00:13.140Z,75.43
2023-05-05T19:02:45.342Z,75.90
2023-05-05T19:05:17.582Z,76.08
2023-05-05T19:07:52.415Z,76.85
2023-05-05T19:10:24.585Z,77.58
2023-05-05T19:12:56.809Z,77.72
2023-05-05T19:15:29.334Z,78.81
2023-05-05T19:18:01.874Z,79.18
2023-05-05T19:20:34.059Z,80.11
2023-05-05T19:23:08.838Z,80.56
2023-05-05T19:25:41.729Z,80.80
2023-05-05T19:28:14.136Z,81.50
2023-05-05T19:30:46.735Z,81.94
2023-05-05T19:33:18.990Z,82.59
2023-05-05T19:35:51.309Z,82.63
2023-05-05T19:38:26.093Z,83.20
2023-05-05T19:40:58.320Z,83.09
2023-05-05T19:43:30.459Z,83.28
2023-05-05T19:46:02.931Z,83.19
2023-05-05T19:48:35.164Z,82.89
2023-05-05T19:51:07.318Z,83.18
2023-05-05T19:53:43.023Z,83.80
2023-05-05T19:56:15.293Z,84.25
2023-05-05T19:58:59.132Z,84.33
2023-05-05T20:01:33.153Z,84.46
2023-05-05T20:04:06.266Z,84.61
2023-05-05T20:06:38.766Z,84.64
2023-05-05T20:09:13.595Z,85.13
2023-05-05T20:11:45.968Z,85.57
2023-05-05T20:14:18.196Z,84.84
2023-05-05T20:16:50.817Z,85.37
2023-05-05T20:19:23.087Z,86.38
2023-05-05T20:21:55.301Z,85.55
2023-05-05T20:24:30.174Z,86.70
2023-05-05T20:27:02.473Z,86.88
2023-05-05T20:29:34.602Z,86.90
2023-05-05T20:32:06.974Z,86.89
2023-05-05T20:34:39.424Z,86.76
2023-05-05T20:37:13.683Z,86.80
2023-05-05T20:39:48.687Z,86.48
2023-05-05T20:42:20.877Z,86.38
2023-05-05T20:44:53.206Z,87.00
2023-05-05T20:47:25.601Z,86.86
2023-05-05T20:49:57.819Z,87.44
2023-05-05T20:52:30.121Z,87.77
2023-05-05T20:55:05.005Z,87.94
2023-05-05T20:57:37.718Z,88.19
2023-05-05T21:00:11.828Z,87.57
2023-05-05T21:02:44.480Z,88.00
2023-05-05T21:05:17.774Z,88.15
2023-05-05T21:07:50.030Z,88.49
2023-05-05T21:10:25.009Z,88.41
2023-05-05T21:12:57.197Z,88.20
2023-05-05T21:15:29.646Z,87.79
2023-05-05T21:18:02.099Z,88.19
2023-05-05T21:20:34.337Z,88.09
2023-05-05T21:23:06.547Z,88.07
2023-05-05T21:25:41.684Z,87.87
2023-05-05T21:28:14.028Z,87.33
2023-05-05T21:30:54.877Z,87.58
2023-05-05T21:33:37.314Z,87.48
2023-05-05T21:36:10.239Z,87.68
2023-05-05T21:38:42.404Z,87.68
2023-05-05T21:41:17.132Z,88.22
2023-05-05T21:43:49.320Z,87.95
2023-05-05T21:46:22.209Z,87.91
2023-05-05T21:48:54.440Z,88.17
2023-05-05T21:51:27.511Z,88.00
2023-05-05T21:53:59.727Z,87.48
2023-05-05T21:56:34.753Z,88.13
2023-05-05T21:59:08.404Z,88.33
2023-05-05T22:01:40.679Z,88.23
2023-05-05T22:04:12.998Z,88.13
2023-05-05T22:06:45.299Z,87.63
2023-05-05T22:09:17.541Z,88.05
2023-05-05T22:11:52.295Z,87.25
2023-05-05T22:14:24.441Z,87.91
2023-05-05T22:16:56.869Z,88.48
2023-05-05T22:19:29.111Z,88.37
2023-05-05T22:22:02.955Z,88.63
2023-05-05T22:24:35.756Z,88.51
2023-05-05T22:27:10.524Z,88.18
2023-05-05T22:29:42.624Z,87.82
2023-05-05T22:32:14.800Z,87.89
2023-05-05T22:34:47.115Z,89.05
2023-05-05T22:37:19.273Z,88.59
2023-05-05T22:39:51.454Z,89.08
2023-05-05T22:42:26.970Z,90.04
2023-05-05T22:44:59.233Z,89.53
2023-05-05T22:47:31.475Z,89.00
2023-05-05T22:50:03.774Z,89.36
2023-05-05T22:52:36.415Z,89.14
2023-05-05T22:55:09.749Z,89.49
2023-05-05T22:57:45.347Z,90.08
2023-05-05T23:00:18.461Z,89.96
2023-05-05T23:02:50.779Z,89.09
2023-05-05T23:05:23.283Z,89.22
2023-05-05T23:07:55.471Z,88.31
2023-05-05T23:10:27.669Z,88.03
2023-05-05T23:13:02.540Z,88.28
2023-05-05T23:15:35.256Z,88.93
2023-05-05T23:18:07.620Z,88.67
2023-05-05T23:20:39.850Z,89.03
2023-05-05T23:23:12.058Z,88.84
2023-05-05T23:25:44.413Z,88.74
2023-05-05T23:28:20.320Z,88.48
2023-05-05T23:30:52.793Z,88.24
2023-05-05T23:33:25.171Z,87.82
2023-05-05T23:35:57.872Z,88.08
2023-05-05T23:38:30.045Z,88.58
2023-05-05T23:41:02.213Z,88.40
2023-05-05T23:43:37.024Z,87.89
2023-05-05T23:46:09.474Z,88.13
2023-05-05T23:48:41.947Z,87.00
2023-05-05T23:51:14.183Z,87.27
2023-05-05T23:53:46.496Z,87.42
2023-05-05T23:56:18.810Z,87.36
2023-05-05T23:58:53.606Z,87.00
